Terminal Aerodrome Forecast
Issued by NWS Sioux Falls, SD

Home | Current Version | Previous Version | Graphics & Text | Print | Product List | Glossary On
Versions: 1 2 3 4 5 6 7 8 9 10 11 12 13 14 15 16 17
000
FTUS43 KFSD 251140
TAFHON
TAF
KHON 251140Z 2512/2612 13006KT P6SM SCT100 BKN200
     FM251400 15010KT P6SM SCT080 OVC150
      TEMPO 2516/2518 6SM -SHRA OVC080
     FM252000 16010KT P6SM SCT100
     FM252300 14008KT P6SM BKN070
      TEMPO 2600/2603 4SM TSRA BKN035CB
     FM260500 13007KT P6SM SCT070 BKN250
     FM261000 13005KT 5SM BR BKN015=

USA.gov is the U.S. government's official web portal to all federal, state and local government web resources and services.